Time;durP1;ratioP1;P1;durP2;ratioP2;P2;SDS_P1;SDS_P2;PMS_P1;PMS_P2;Temp;Humidity;BMP_temperature;BMP_pressure;BME280_temperature;BME280_humidity;BME280_pressure;Samples;Min_cycle;Max_cycle;Signal;HPM_P1;HPM_P2
2024/01/26 00:00:00;;;;;;;5.32;5.03;;;10.50;99.90;;;;;;5032045;28;20034;-70
2024/01/26 00:02:26;;;;;;;5.50;5.05;;;10.50;99.90;;;;;;5031366;28;20040;-69
2024/01/26 00:04:51;;;;;;;5.03;4.82;;;10.50;99.90;;;;;;5030916;28;20024;-70
2024/01/26 00:07:17;;;;;;;6.32;4.65;;;10.50;99.90;;;;;;5032336;28;20029;-69
2024/01/26 00:09:42;;;;;;;5.43;4.93;;;10.50;99.90;;;;;;5031406;28;20087;-69
2024/01/26 00:12:08;;;;;;;6.10;5.47;;;10.50;99.90;;;;;;5029635;28;20061;-70
2024/01/26 00:14:33;;;;;;;3.90;3.80;;;10.50;99.90;;;;;;5029942;28;20057;-70
2024/01/26 00:16:59;;;;;;;5.60;5.20;;;10.50;99.90;;;;;;5030722;28;20025;-71
2024/01/26 00:19:25;;;;;;;4.90;4.40;;;10.60;99.90;;;;;;5030517;28;20458;-70
2024/01/26 00:21:50;;;;;;;3.95;3.80;;;10.60;99.90;;;;;;5030443;28;20599;-70
2024/01/26 00:24:16;;;;;;;4.97;4.57;;;10.60;99.90;;;;;;5030638;28;20028;-70
2024/01/26 00:26:41;;;;;;;5.22;4.72;;;10.60;99.90;;;;;;5030541;28;20030;-70
2024/01/26 00:29:07;;;;;;;6.43;5.75;;;10.60;99.90;;;;;;5031443;28;20432;-70
2024/01/26 00:31:32;;;;;;;5.47;4.97;;;10.60;99.90;;;;;;5031632;28;20404;-71
2024/01/26 00:33:58;;;;;;;5.25;4.85;;;10.60;99.90;;;;;;5033062;28;20029;-70
2024/01/26 00:36:23;;;;;;;7.38;5.75;;;10.60;99.90;;;;;;5034314;28;20114;-70
2024/01/26 00:38:49;;;;;;;5.50;4.95;;;10.70;99.90;;;;;;5034919;28;20116;-70
2024/01/26 00:41:15;;;;;;;6.30;5.70;;;10.70;99.90;;;;;;5034827;28;20025;-70
2024/01/26 00:43:41;;;;;;;6.80;6.20;;;10.70;99.90;;;;;;5034650;28;20438;-70
2024/01/26 00:46:08;;;;;;;5.78;5.35;;;10.80;99.90;;;;;;5035003;28;20152;-70
2024/01/26 00:48:33;;;;;;;5.72;5.13;;;10.80;99.90;;;;;;5032317;28;20026;-70
2024/01/26 00:50:59;;;;;;;6.10;5.60;;;10.80;99.90;;;;;;5034811;28;20075;-71
2024/01/26 00:53:25;;;;;;;7.47;6.05;;;10.90;99.90;;;;;;5034497;28;20473;-70
2024/01/26 00:55:50;;;;;;;5.80;5.40;;;10.90;99.90;;;;;;5034469;28;20025;-70
2024/01/26 00:58:16;;;;;;;8.15;6.13;;;10.90;99.90;;;;;;5034324;28;20018;-69
2024/01/26 01:00:42;;;;;;;6.10;5.55;;;11.00;99.90;;;;;;5034758;28;20034;-70
2024/01/26 01:03:07;;;;;;;7.15;6.50;;;11.00;99.90;;;;;;5034424;28;20041;-70
2024/01/26 01:05:33;;;;;;;6.40;5.50;;;11.00;99.90;;;;;;5034576;28;20409;-70
2024/01/26 01:07:59;;;;;;;5.97;5.57;;;11.00;99.90;;;;;;5034562;28;20072;-70
2024/01/26 01:10:24;;;;;;;6.90;6.20;;;11.00;99.90;;;;;;5034462;28;20025;-70
2024/01/26 01:12:52;;;;;;;6.45;4.97;;;11.10;99.90;;;;;;5034042;28;20051;-70
2024/01/26 01:15:17;;;;;;;5.47;4.97;;;11.10;99.90;;;;;;5034385;28;20056;-69
2024/01/26 01:17:45;;;;;;;5.53;5.18;;;11.10;99.90;;;;;;5034058;28;20048;-71
2024/01/26 01:20:11;;;;;;;8.30;5.40;;;11.10;99.90;;;;;;5034338;28;20079;-68
2024/01/26 01:22:37;;;;;;;5.68;5.20;;;11.20;99.90;;;;;;5034008;28;20478;-69
2024/01/26 01:25:06;;;;;;;7.43;5.95;;;11.20;99.90;;;;;;5033906;28;20104;-70
2024/01/26 01:27:32;;;;;;;9.85;6.97;;;11.30;99.90;;;;;;5034140;28;20032;-69
2024/01/26 01:29:59;;;;;;;5.00;4.50;;;11.30;99.90;;;;;;5034251;28;20026;-70
2024/01/26 01:32:24;;;;;;;5.32;4.80;;;11.30;99.90;;;;;;5034170;28;20033;-70
2024/01/26 01:34:54;;;;;;;5.63;5.13;;;11.40;99.90;;;;;;5034476;28;20073;-70
2024/01/26 01:37:19;;;;;;;4.90;4.50;;;11.40;99.90;;;;;;5034144;28;20033;-70
2024/01/26 01:39:45;;;;;;;5.03;4.55;;;11.50;99.90;;;;;;5036148;28;20029;-70
2024/01/26 01:42:16;;;;;;;6.60;5.13;;;11.50;99.90;;;;;;5047284;28;20087;-70
2024/01/26 01:44:42;;;;;;;6.93;6.03;;;11.50;99.90;;;;;;5036714;28;20492;-70
2024/01/26 01:47:09;;;;;;;4.20;4.00;;;11.60;99.90;;;;;;5049810;28;20025;-70
2024/01/26 01:49:35;;;;;;;4.72;4.32;;;11.70;99.90;;;;;;5037204;28;20080;-70
2024/01/26 01:52:03;;;;;;;5.93;5.30;;;11.70;99.90;;;;;;5048519;28;20037;-69
2024/01/26 01:54:30;;;;;;;7.80;6.22;;;11.80;99.90;;;;;;5042652;28;20065;-70
2024/01/26 01:56:57;;;;;;;6.32;5.72;;;11.80;99.90;;;;;;5041158;28;20037;-68
2024/01/26 01:59:23;;;;;;;6.40;5.80;;;11.80;99.90;;;;;;5049736;28;20032;-69
2024/01/26 02:01:49;;;;;;;7.70;5.60;;;11.90;99.90;;;;;;5036572;28;20116;-69
2024/01/26 02:04:15;;;;;;;7.38;6.65;;;11.90;99.90;;;;;;5046434;28;20044;-70
2024/01/26 02:06:40;;;;;;;8.30;5.20;;;11.90;99.90;;;;;;5043416;28;20416;-70
2024/01/26 02:09:06;;;;;;;6.32;5.82;;;11.90;99.90;;;;;;5039379;28;20382;-70
2024/01/26 02:11:32;;;;;;;7.32;6.25;;;11.90;99.90;;;;;;5049820;28;20423;-70
2024/01/26 02:13:59;;;;;;;5.68;5.28;;;12.00;99.90;;;;;;5037786;28;20107;-69
2024/01/26 02:16:24;;;;;;;6.28;5.80;;;12.00;99.90;;;;;;5044833;28;20366;-69
2024/01/26 02:18:50;;;;;;;9.73;7.30;;;12.00;99.90;;;;;;5044991;28;20032;-70
2024/01/26 02:21:16;;;;;;;6.65;5.47;;;12.10;99.90;;;;;;5037605;28;20373;-69
2024/01/26 02:23:43;;;;;;;5.00;4.72;;;12.10;99.90;;;;;;5049661;28;20162;-69
2024/01/26 02:26:09;;;;;;;5.55;5.15;;;12.10;99.90;;;;;;5038859;28;20128;-70
2024/01/26 02:28:35;;;;;;;15.88;7.47;;;12.10;99.90;;;;;;5043638;28;20452;-70
2024/01/26 02:31:01;;;;;;;8.00;7.25;;;12.10;99.90;;;;;;5046254;28;20029;-70
2024/01/26 02:33:28;;;;;;;7.70;7.00;;;12.10;99.90;;;;;;5036380;28;20425;-69
2024/01/26 02:35:53;;;;;;;10.30;6.63;;;12.10;99.90;;;;;;5048805;28;20048;-69
2024/01/26 02:38:19;;;;;;;8.90;5.75;;;12.20;99.90;;;;;;5040388;28;20029;-70
2024/01/26 02:40:45;;;;;;;6.28;5.43;;;12.10;99.90;;;;;;5041848;28;20405;-69
2024/01/26 02:43:11;;;;;;;7.68;6.93;;;12.20;99.90;;;;;;5047504;28;20041;-70
2024/01/26 02:45:36;;;;;;;6.75;6.07;;;12.20;99.90;;;;;;5035891;28;20075;-70
2024/01/26 02:48:02;;;;;;;9.32;8.18;;;12.20;99.90;;;;;;5047744;28;20076;-69
2024/01/26 02:50:28;;;;;;;13.77;8.00;;;12.20;99.90;;;;;;5041032;28;20107;-69
2024/01/26 02:52:53;;;;;;;6.53;6.03;;;12.20;99.90;;;;;;5040588;28;20520;-68
2024/01/26 02:55:19;;;;;;;5.70;5.20;;;12.20;99.90;;;;;;5047613;28;20485;-69
2024/01/26 02:57:44;;;;;;;10.82;8.13;;;12.20;99.90;;;;;;5035838;28;20051;-69
2024/01/26 03:00:11;;;;;;;8.15;7.45;;;12.20;99.90;;;;;;5046084;28;20040;-69
2024/01/26 03:02:37;;;;;;;6.60;6.07;;;12.20;99.90;;;;;;5042211;28;20045;-69
2024/01/26 03:05:03;;;;;;;6.40;5.90;;;12.10;99.90;;;;;;5038931;28;20037;-70
2024/01/26 03:07:29;;;;;;;9.93;8.27;;;12.20;99.90;;;;;;5048817;28;20029;-69
2024/01/26 03:09:55;;;;;;;8.95;8.10;;;12.10;99.90;;;;;;5036506;28;20028;-70
2024/01/26 03:12:20;;;;;;;8.65;7.78;;;12.10;99.90;;;;;;5044897;28;20030;-69
2024/01/26 03:14:46;;;;;;;8.13;7.38;;;12.10;99.90;;;;;;5043266;28;20029;-69
2024/01/26 03:17:11;;;;;;;10.52;7.40;;;12.10;99.90;;;;;;5037732;28;20017;-70
2024/01/26 03:19:37;;;;;;;9.77;6.80;;;12.10;99.90;;;;;;5048477;28;20053;-68
2024/01/26 03:22:02;;;;;;;17.58;8.07;;;12.00;99.90;;;;;;5037335;28;20086;-69
2024/01/26 03:24:28;;;;;;;11.48;8.50;;;12.10;99.90;;;;;;5043578;28;20449;-69
2024/01/26 03:26:54;;;;;;;9.48;7.80;;;12.10;99.90;;;;;;5044527;28;20033;-69
2024/01/26 03:29:20;;;;;;;11.30;9.00;;;12.10;99.90;;;;;;5036413;28;20029;-70
2024/01/26 03:31:45;;;;;;;7.57;6.55;;;12.10;99.90;;;;;;5048813;28;20850;-70
2024/01/26 03:34:11;;;;;;;9.45;6.57;;;12.10;99.90;;;;;;5037864;28;20112;-69
2024/01/26 03:36:36;;;;;;;9.57;8.35;;;12.10;99.90;;;;;;5042338;28;20034;-70
2024/01/26 03:39:03;;;;;;;6.65;6.05;;;12.10;99.90;;;;;;5045447;28;20029;-70
2024/01/26 03:41:29;;;;;;;16.80;10.82;;;12.10;99.90;;;;;;5035455;28;20152;-70
2024/01/26 03:43:55;;;;;;;17.27;9.48;;;12.00;99.90;;;;;;5047697;28;20069;-70
2024/01/26 03:46:20;;;;;;;12.07;9.15;;;12.00;99.90;;;;;;5039385;28;20032;-71
2024/01/26 03:48:46;;;;;;;7.63;6.90;;;12.00;99.90;;;;;;5040612;28;20041;-70
2024/01/26 03:51:12;;;;;;;10.38;8.18;;;12.00;99.90;;;;;;5046460;28;20029;-70
2024/01/26 03:53:38;;;;;;;6.28;5.78;;;12.00;99.90;;;;;;5035319;28;20032;-70
2024/01/26 03:56:03;;;;;;;7.75;7.07;;;12.00;99.90;;;;;;5047065;28;20040;-69
2024/01/26 03:58:29;;;;;;;9.27;8.05;;;12.00;99.90;;;;;;5040685;28;20025;-70
2024/01/26 04:00:55;;;;;;;5.72;5.22;;;12.00;99.90;;;;;;5039741;28;20059;-69
2024/01/26 04:03:21;;;;;;;7.55;6.72;;;12.00;99.90;;;;;;5047053;28;20087;-70
2024/01/26 04:05:46;;;;;;;12.88;9.60;;;12.00;99.90;;;;;;5035337;28;20033;-69
2024/01/26 04:08:12;;;;;;;7.13;6.55;;;12.10;99.90;;;;;;5048132;28;20091;-68
2024/01/26 04:10:38;;;;;;;19.27;12.10;;;12.10;99.90;;;;;;5045780;28;20025;-68
2024/01/26 04:13:03;;;;;;;11.98;8.98;;;12.10;99.90;;;;;;5041811;28;20065;-69
2024/01/26 04:15:29;;;;;;;14.13;9.50;;;12.10;99.90;;;;;;5051814;28;20028;-69
2024/01/26 04:17:56;;;;;;;11.50;8.63;;;12.10;99.90;;;;;;5039437;28;20032;-69
2024/01/26 04:20:22;;;;;;;8.52;7.75;;;12.10;99.90;;;;;;5047754;28;20040;-69
2024/01/26 04:22:47;;;;;;;8.82;8.00;;;12.10;99.90;;;;;;5046439;28;20033;-70
2024/01/26 04:25:13;;;;;;;18.15;11.07;;;12.10;99.90;;;;;;5040622;28;20461;-70
2024/01/26 04:27:38;;;;;;;14.23;10.70;;;12.00;99.90;;;;;;5051867;28;20464;-70
2024/01/26 04:30:04;;;;;;;8.07;7.38;;;12.00;99.90;;;;;;5040695;28;20025;-72
2024/01/26 04:32:30;;;;;;;11.73;10.10;;;12.00;99.90;;;;;;5045768;28;20029;-72
2024/01/26 04:34:55;;;;;;;9.77;8.48;;;11.90;99.90;;;;;;5040173;28;20044;-72
2024/01/26 04:37:21;;;;;;;14.70;9.77;;;11.90;99.90;;;;;;5038989;28;20025;-72
2024/01/26 04:39:47;;;;;;;14.77;11.20;;;11.90;99.90;;;;;;5051668;28;20049;-72
2024/01/26 04:42:12;;;;;;;17.17;11.88;;;11.80;99.90;;;;;;5041622;28;20060;-72
2024/01/26 04:44:38;;;;;;;16.35;9.10;;;11.80;99.90;;;;;;5045126;28;20433;-71
2024/01/26 04:47:03;;;;;;;12.25;10.00;;;11.80;99.90;;;;;;5048283;28;20387;-70
2024/01/26 04:49:29;;;;;;;7.22;6.55;;;11.80;99.90;;;;;;5037187;28;20355;-69
2024/01/26 04:51:54;;;;;;;16.67;11.20;;;11.80;99.90;;;;;;5050812;28;20033;-70
2024/01/26 04:54:20;;;;;;;9.02;7.60;;;11.80;99.90;;;;;;5042704;28;20021;-72
2024/01/26 04:56:46;;;;;;;12.43;9.27;;;11.70;99.90;;;;;;5043533;28;20026;-72
2024/01/26 04:59:11;;;;;;;19.25;14.02;;;11.70;99.90;;;;;;5049643;28;20021;-72
2024/01/26 05:01:37;;;;;;;15.77;9.60;;;11.70;99.90;;;;;;5038183;28;20034;-72
2024/01/26 05:04:06;;;;;;;11.38;10.35;;;11.70;99.90;;;;;;5049597;28;20121;-72
2024/01/26 05:06:31;;;;;;;14.93;13.52;;;11.60;99.90;;;;;;5044109;28;20111;-73
2024/01/26 05:08:57;;;;;;;19.08;17.27;;;11.60;99.90;;;;;;5042148;28;20124;-71
2024/01/26 05:11:22;;;;;;;16.67;15.10;;;11.60;99.90;;;;;;5051035;28;20056;-71
2024/01/26 05:13:48;;;;;;;13.48;12.15;;;11.60;99.90;;;;;;5037951;28;20025;-71
2024/01/26 05:16:13;;;;;;;21.67;19.35;;;11.60;99.90;;;;;;5047474;28;20032;-72
2024/01/26 05:18:39;;;;;;;15.30;13.40;;;11.60;99.90;;;;;;5044437;28;20112;-73
2024/01/26 05:21:05;;;;;;;20.90;18.98;;;11.60;99.90;;;;;;5040640;28;20442;-72
2024/01/26 05:23:30;;;;;;;17.23;15.73;;;11.70;99.90;;;;;;5050902;28;20045;-72
2024/01/26 05:25:56;;;;;;;13.95;12.68;;;11.70;99.90;;;;;;5038769;28;20033;-73
2024/01/26 05:28:22;;;;;;;14.05;12.93;;;11.60;99.90;;;;;;5046645;28;20071;-70
2024/01/26 05:30:48;;;;;;;18.65;15.25;;;11.60;99.90;;;;;;5045403;28;20033;-71
2024/01/26 05:33:13;;;;;;;15.20;12.98;;;11.60;99.90;;;;;;5039475;28;20028;-70
2024/01/26 05:35:39;;;;;;;15.45;14.02;;;11.60;99.90;;;;;;5050800;28;20131;-72
2024/01/26 05:38:04;;;;;;;18.48;16.63;;;11.60;99.90;;;;;;5039841;28;20052;-72
2024/01/26 05:40:30;;;;;;;16.67;15.18;;;11.60;99.90;;;;;;5045386;28;20485;-72
2024/01/26 05:42:56;;;;;;;16.30;13.55;;;11.60;99.90;;;;;;5046944;28;20048;-73
2024/01/26 05:45:21;;;;;;;13.02;12.02;;;11.60;99.90;;;;;;5038099;28;20057;-72
2024/01/26 05:47:47;;;;;;;12.02;11.10;;;11.60;99.90;;;;;;5050583;28;20410;-73
2024/01/26 05:50:14;;;;;;;14.93;13.40;;;11.60;99.90;;;;;;5040430;28;20028;-71
2024/01/26 05:52:41;;;;;;;14.85;13.05;;;11.60;99.90;;;;;;5043694;28;20025;-73
2024/01/26 05:55:07;;;;;;;16.20;14.00;;;11.50;99.90;;;;;;5048032;28;20487;-72
2024/01/26 05:57:33;;;;;;;11.93;10.98;;;11.60;99.90;;;;;;5037502;28;20124;-72
2024/01/26 05:59:59;;;;;;;10.10;9.35;;;11.60;99.90;;;;;;5049381;28;20113;-71
2024/01/26 06:02:24;;;;;;;10.15;9.45;;;11.50;99.90;;;;;;5042013;28;20075;-71
2024/01/26 06:04:50;;;;;;;9.02;8.25;;;11.60;99.90;;;;;;5041989;28;20025;-72
2024/01/26 06:07:15;;;;;;;12.88;11.68;;;11.60;99.90;;;;;;5049133;28;20070;-71
2024/01/26 06:09:41;;;;;;;11.02;10.07;;;11.60;99.90;;;;;;5037217;28;20480;-71
2024/01/26 06:12:07;;;;;;;13.07;11.35;;;11.60;99.90;;;;;;5047970;28;20377;-71
2024/01/26 06:14:32;;;;;;;13.27;11.82;;;11.60;99.90;;;;;;5042465;28;20374;-71
2024/01/26 06:16:58;;;;;;;14.23;9.70;;;11.60;99.90;;;;;;5040658;28;20413;-71
2024/01/26 06:19:23;;;;;;;8.48;7.60;;;11.70;99.90;;;;;;5049912;28;20376;-70
2024/01/26 06:21:49;;;;;;;5.80;5.20;;;11.70;99.90;;;;;;5036752;28;20504;-71
2024/01/26 06:24:14;;;;;;;7.38;5.97;;;11.70;99.90;;;;;;5045462;28;20032;-71
2024/01/26 06:26:40;;;;;;;8.85;6.05;;;11.70;99.90;;;;;;5043795;28;20031;-73
2024/01/26 06:29:05;;;;;;;11.55;4.97;;;11.70;99.90;;;;;;5039332;28;20032;-71
2024/01/26 06:31:31;;;;;;;7.00;4.75;;;11.70;99.90;;;;;;5048687;28;20346;-71
2024/01/26 06:33:56;;;;;;;20.83;10.32;;;11.70;99.90;;;;;;5037476;28;20056;-70
2024/01/26 06:36:22;;;;;;;11.70;7.00;;;11.70;99.90;;;;;;5045320;28;20030;-71
2024/01/26 06:38:48;;;;;;;5.95;5.30;;;11.70;99.90;;;;;;5044315;28;20151;-70
2024/01/26 06:41:13;;;;;;;11.40;7.97;;;11.70;99.90;;;;;;5038136;28;20018;-70
2024/01/26 06:43:39;;;;;;;6.03;4.68;;;11.70;99.90;;;;;;5049264;28;20032;-70
2024/01/26 06:46:04;;;;;;;7.82;5.68;;;11.70;99.90;;;;;;5032620;28;20026;-70
2024/01/26 06:48:30;;;;;;;6.15;5.25;;;11.70;99.90;;;;;;5032772;28;20378;-70
2024/01/26 06:50:56;;;;;;;14.52;7.68;;;11.70;99.90;;;;;;5045051;28;20029;-70
2024/01/26 06:53:21;;;;;;;7.90;5.97;;;11.60;99.90;;;;;;5036830;28;20025;-71
2024/01/26 06:55:47;;;;;;;6.65;5.35;;;11.60;99.90;;;;;;5049315;28;20028;-71
2024/01/26 06:58:13;;;;;;;10.25;5.25;;;11.60;99.90;;;;;;5039184;28;20518;-70
2024/01/26 07:00:38;;;;;;;12.88;6.10;;;11.60;99.90;;;;;;5042606;28;20037;-70
2024/01/26 07:03:04;;;;;;;8.27;5.53;;;11.50;99.90;;;;;;5046236;28;20047;-71
2024/01/26 07:05:29;;;;;;;9.50;6.03;;;11.50;99.90;;;;;;5036204;28;20109;-71
2024/01/26 07:07:56;;;;;;;6.72;4.55;;;11.50;99.90;;;;;;5045511;28;20053;-71
2024/01/26 07:10:25;;;;;;;14.57;5.50;;;11.40;99.90;;;;;;5045026;28;20025;-70
2024/01/26 07:12:51;;;;;;;11.73;5.97;;;11.40;99.90;;;;;;5044509;28;20112;-70
2024/01/26 07:15:16;;;;;;;7.85;4.78;;;11.40;99.90;;;;;;5037026;28;20109;-71
2024/01/26 07:17:42;;;;;;;11.50;5.80;;;11.30;99.90;;;;;;5048648;28;20052;-71
2024/01/26 07:20:08;;;;;;;20.20;6.85;;;11.30;99.90;;;;;;5038042;28;20025;-70
2024/01/26 07:22:33;;;;;;;13.38;6.68;;;11.30;99.90;;;;;;5043100;28;20026;-70
2024/01/26 07:24:59;;;;;;;6.00;4.30;;;11.20;99.90;;;;;;5045397;28;20044;-70
2024/01/26 07:27:24;;;;;;;8.27;4.72;;;11.20;99.90;;;;;;5035560;28;20030;-70
2024/01/26 07:29:50;;;;;;;15.88;6.03;;;11.10;99.90;;;;;;5019471;28;20033;-71
2024/01/26 07:32:15;;;;;;;13.75;5.75;;;11.10;99.90;;;;;;5045527;28;20049;-71
2024/01/26 07:34:41;;;;;;;7.45;4.90;;;11.00;99.90;;;;;;5042520;28;20045;-70
2024/01/26 07:37:07;;;;;;;34.22;17.48;;;11.00;99.90;;;;;;5038322;28;20084;-70
2024/01/26 07:39:33;;;;;;;12.93;5.45;;;11.00;99.90;;;;;;5034915;28;20104;-69
2024/01/26 07:41:59;;;;;;;12.32;6.25;;;10.90;99.90;;;;;;5048137;28;20144;-69
2024/01/26 07:44:25;;;;;;;7.15;4.55;;;10.90;99.90;;;;;;5044282;28;20111;-70
2024/01/26 07:46:50;;;;;;;12.27;5.68;;;10.80;99.90;;;;;;5044606;28;20029;-70
2024/01/26 07:49:16;;;;;;;19.88;7.53;;;10.80;99.90;;;;;;5051656;28;20067;-71
2024/01/26 07:51:41;;;;;;;20.13;8.20;;;10.70;99.90;;;;;;5039762;28;20026;-71
2024/01/26 07:54:07;;;;;;;12.57;5.40;;;10.70;99.90;;;;;;5050619;28;20080;-70
2024/01/26 07:56:32;;;;;;;13.23;4.70;;;10.70;99.90;;;;;;5045366;28;20029;-71
2024/01/26 07:58:58;;;;;;;13.80;4.60;;;10.70;99.90;;;;;;5043314;28;20071;-72
2024/01/26 08:01:24;;;;;;;17.20;6.53;;;10.70;99.90;;;;;;5052440;28;20025;-72
2024/01/26 08:03:49;;;;;;;12.52;5.40;;;10.70;99.90;;;;;;5039186;28;20499;-74
2024/01/26 08:06:15;;;;;;;14.32;5.30;;;10.70;99.90;;;;;;5046820;28;20108;-71
2024/01/26 08:08:41;;;;;;;15.05;4.38;;;10.60;99.90;;;;;;5042456;28;20017;-73
2024/01/26 08:11:06;;;;;;;14.10;5.03;;;10.60;99.90;;;;;;5049985;28;20510;-71
2024/01/26 08:13:32;;;;;;;12.82;5.18;;;10.60;99.90;;;;;;5038483;28;20037;-70
2024/01/26 08:15:57;;;;;;;13.30;4.43;;;10.60;99.90;;;;;;5051084;28;20022;-71
2024/01/26 08:18:23;;;;;;;10.80;4.22;;;10.50;99.90;;;;;;5043626;28;20071;-71
2024/01/26 08:20:50;;;;;;;21.48;7.32;;;10.50;99.90;;;;;;5044221;28;20057;-71
2024/01/26 08:23:15;;;;;;;6.25;3.80;;;10.50;99.90;;;;;;5042056;28;20115;-72
2024/01/26 08:25:41;;;;;;;10.55;3.25;;;10.50;99.90;;;;;;5051788;28;20060;-72
2024/01/26 08:28:06;;;;;;;14.10;3.60;;;10.50;99.90;;;;;;5040883;28;20568;-72
2024/01/26 08:30:34;;;;;;;3.90;2.20;;;10.60;99.90;;;;;;5045849;28;20038;-72
2024/01/26 08:32:59;;;;;;;10.18;3.17;;;10.50;99.90;;;;;;5047125;28;20021;-73
2024/01/26 08:35:25;;;;;;;12.48;4.53;;;10.50;99.90;;;;;;5055233;28;20052;-73
2024/01/26 08:37:50;;;;;;;6.55;3.03;;;10.50;99.90;;;;;;5038923;28;20087;-72
2024/01/26 08:40:16;;;;;;;7.78;3.58;;;10.30;99.90;;;;;;5047964;28;20034;-72
2024/01/26 08:42:44;;;;;;;4.10;2.90;;;10.10;99.90;;;;;;5045258;28;20048;-72
2024/01/26 08:45:10;;;;;;;4.35;4.03;;;10.00;99.90;;;;;;5040960;28;20042;-72
2024/01/26 08:47:36;;;;;;;6.68;3.63;;;9.80;99.90;;;;;;5051523;28;20040;-72
2024/01/26 08:50:01;;;;;;;8.93;3.65;;;9.60;99.90;;;;;;5039281;28;20078;-72
2024/01/26 08:52:27;;;;;;;14.40;3.95;;;9.50;99.90;;;;;;5046707;28;20075;-72
2024/01/26 08:54:53;;;;;;;4.63;3.38;;;9.40;99.90;;;;;;5045444;28;20031;-72
2024/01/26 08:57:19;;;;;;;5.93;3.17;;;9.30;99.90;;;;;;5039202;28;20108;-72
2024/01/26 08:59:44;;;;;;;6.90;3.80;;;9.20;99.90;;;;;;5051223;28;20022;-72
2024/01/26 09:02:10;;;;;;;2.45;2.35;;;9.10;99.90;;;;;;5040952;28;20039;-72
2024/01/26 09:04:36;;;;;;;3.63;2.65;;;9.10;99.90;;;;;;5044983;28;20490;-72
2024/01/26 09:07:02;;;;;;;3.60;2.33;;;9.10;99.90;;;;;;5048091;28;20071;-72
2024/01/26 09:09:28;;;;;;;4.75;3.15;;;9.10;99.90;;;;;;5037674;28;20373;-72
2024/01/26 09:11:54;;;;;;;9.65;4.30;;;9.10;99.90;;;;;;5048726;28;20116;-71
2024/01/26 09:14:20;;;;;;;3.53;2.65;;;9.10;99.90;;;;;;5042140;28;20065;-71
2024/01/26 09:16:55;;;;;;;3.75;2.95;;;9.10;99.90;;;;;;5043285;28;20454;-71
2024/01/26 09:19:20;;;;;;;3.25;2.28;;;9.10;99.90;;;;;;5050148;28;20037;-71
2024/01/26 09:21:46;;;;;;;2.53;2.40;;;9.20;99.90;;;;;;5037901;28;20099;-70
2024/01/26 09:24:12;;;;;;;7.63;2.35;;;9.30;99.90;;;;;;5047659;28;20041;-71
2024/01/26 09:26:39;;;;;;;5.10;2.50;;;9.30;99.90;;;;;;5043981;28;20029;-71
2024/01/26 09:29:06;;;;;;;5.28;4.80;;;9.40;99.90;;;;;;5039808;28;20055;-71
2024/01/26 09:31:32;;;;;;;5.47;3.03;;;9.40;99.90;;;;;;5050423;28;20036;-71
2024/01/26 09:34:18;;;;;;;3.95;3.03;;;9.50;99.90;;;;;;5038055;28;20026;-71
2024/01/26 09:36:43;;;;;;;5.13;2.47;;;9.60;99.90;;;;;;5045005;28;20477;-71
2024/01/26 09:39:09;;;;;;;3.22;2.83;;;9.70;99.90;;;;;;5038565;28;20030;-71
2024/01/26 09:41:35;;;;;;;2.90;2.60;;;9.80;99.90;;;;;;5036122;28;20036;-71
2024/01/26 09:44:01;;;;;;;9.57;3.38;;;9.80;99.90;;;;;;5037841;28;20028;-71
2024/01/26 09:46:29;;;;;;;4.53;2.72;;;9.80;99.90;;;;;;5038098;28;20029;-71
2024/01/26 09:48:57;;;;;;;13.10;2.40;;;9.80;99.90;;;;;;5034472;28;20053;-70
2024/01/26 09:51:24;;;;;;;4.50;1.70;;;10.00;99.90;;;;;;5036547;28;20021;-70
2024/01/26 09:53:53;;;;;;;19.98;7.38;;;10.30;99.90;;;;;;5037737;28;20478;-70
2024/01/26 09:56:21;;;;;;;6.32;1.98;;;10.50;99.90;;;;;;5032452;28;20040;-71
2024/01/26 09:58:46;;;;;;;3.42;0.95;;;10.80;99.90;;;;;;5043040;28;20079;-70
2024/01/26 10:01:19;;;;;;;8.98;1.60;;;11.20;99.90;;;;;;5036351;28;20025;-69
2024/01/26 10:03:45;;;;;;;5.43;1.33;;;11.60;99.90;;;;;;5046875;28;20119;-70
2024/01/26 10:06:10;;;;;;;6.72;2.85;;;12.00;99.90;;;;;;5041484;28;20113;-70
2024/01/26 10:08:40;;;;;;;9.07;2.08;;;12.40;99.90;;;;;;5039905;28;20026;-69
2024/01/26 10:11:06;;;;;;;17.63;2.55;;;12.70;99.90;;;;;;5041258;28;20064;-71
2024/01/26 10:13:32;;;;;;;6.30;1.58;;;12.90;99.90;;;;;;5052613;28;20382;-70
2024/01/26 10:16:09;;;;;;;3.58;0.70;;;13.20;99.90;;;;;;5042793;28;20032;-70
2024/01/26 10:18:48;;;;;;;4.07;0.95;;;13.30;99.90;;;;;;5033419;28;20104;-70
2024/01/26 10:21:15;;;;;;;1.58;1.33;;;13.80;99.90;;;;;;5040681;28;20028;-70
2024/01/26 10:23:42;;;;;;;4.18;1.77;;;14.10;99.90;;;;;;5041297;28;20026;-71
2024/01/26 10:26:11;;;;;;;5.82;1.38;;;14.30;99.90;;;;;;5041285;28;20032;-70
2024/01/26 10:28:37;;;;;;;1.95;0.65;;;14.50;99.90;;;;;;5044345;28;20029;-70
2024/01/26 10:31:03;;;;;;;6.28;0.82;;;14.50;99.90;;;;;;5045005;28;20552;-69
2024/01/26 10:33:31;;;;;;;7.28;1.85;;;14.50;99.90;;;;;;5032623;28;20108;-69
2024/01/26 10:35:59;;;;;;;3.92;1.27;;;14.50;99.90;;;;;;5040395;28;20062;-70
2024/01/26 10:38:25;;;;;;;3.92;1.38;;;14.40;99.90;;;;;;5031247;28;20457;-71
2024/01/26 10:41:01;;;;;;;3.75;0.98;;;14.60;99.90;;;;;;5040359;28;20095;-70
2024/01/26 10:43:28;;;;;;;4.10;1.38;;;14.70;99.90;;;;;;5043326;28;20139;-69
2024/01/26 10:45:55;;;;;;;6.43;1.92;;;14.70;99.90;;;;;;5043489;28;20029;-70
2024/01/26 10:48:22;;;;;;;3.30;0.80;;;14.70;99.90;;;;;;5039468;28;20036;-70
2024/01/26 10:50:48;;;;;;;5.93;1.75;;;14.70;99.90;;;;;;5039928;28;20096;-70
2024/01/26 10:53:15;;;;;;;4.68;1.55;;;14.80;99.90;;;;;;5048665;28;20128;-70
2024/01/26 10:55:42;;;;;;;4.15;0.80;;;14.70;99.90;;;;;;5039761;28;20033;-68
2024/01/26 10:58:08;;;;;;;17.48;3.08;;;14.70;99.90;;;;;;5041877;28;20025;-70
2024/01/26 11:00:34;;;;;;;4.15;1.40;;;14.60;99.90;;;;;;5044366;28;20021;-68
2024/01/26 11:03:00;;;;;;;6.03;1.73;;;14.50;99.90;;;;;;5044502;28;20037;-68
2024/01/26 11:05:25;;;;;;;10.65;1.77;;;14.30;99.90;;;;;;5040594;28;20095;-68
2024/01/26 11:07:52;;;;;;;6.07;1.95;;;14.30;99.90;;;;;;5040990;28;20101;-68
2024/01/26 11:10:24;;;;;;;9.73;1.20;;;14.40;99.90;;;;;;5043263;28;20055;-69
2024/01/26 11:13:06;;;;;;;2.13;0.63;;;14.40;99.90;;;;;;5030846;28;20053;-70
2024/01/26 11:15:34;;;;;;;8.60;1.88;;;14.40;99.90;;;;;;5033726;28;20030;-70
2024/01/26 11:18:00;;;;;;;4.30;1.13;;;14.30;99.90;;;;;;5036999;28;20119;-70
2024/01/26 11:20:35;;;;;;;5.07;1.20;;;14.40;99.90;;;;;;5041348;28;20034;-69
2024/01/26 11:23:14;;;;;;;3.92;0.75;;;14.50;99.90;;;;;;5038777;28;20045;-70
2024/01/26 11:25:49;;;;;;;0.65;0.65;;;14.40;99.90;;;;;;5034798;28;20031;-69
2024/01/26 11:28:17;;;;;;;7.50;1.15;;;14.40;99.90;;;;;;5042887;28;20022;-69
2024/01/26 11:30:50;;;;;;;3.80;0.98;;;14.60;99.90;;;;;;5044250;28;20021;-68
2024/01/26 11:33:17;;;;;;;13.65;2.72;;;14.50;99.90;;;;;;5041254;28;20501;-70
2024/01/26 11:35:43;;;;;;;4.47;1.13;;;14.40;99.90;;;;;;5038515;28;20128;-70
2024/01/26 11:38:09;;;;;;;7.63;1.42;;;14.40;99.90;;;;;;5033956;28;20120;-69
2024/01/26 11:40:35;;;;;;;8.13;1.65;;;14.30;99.90;;;;;;5035159;28;20070;-67
2024/01/26 11:43:01;;;;;;;3.65;1.88;;;14.30;99.90;;;;;;5033834;28;20370;-69
2024/01/26 11:45:46;;;;;;;6.60;0.63;;;14.50;99.90;;;;;;5043571;28;20110;-68
2024/01/26 11:48:13;;;;;;;9.27;2.63;;;14.70;99.90;;;;;;5018921;28;20037;-69
2024/01/26 11:50:44;;;;;;;1.10;0.70;;;14.70;99.90;;;;;;5046032;28;20025;-68
2024/01/26 11:53:10;;;;;;;2.72;1.08;;;14.70;99.90;;;;;;5033057;28;20100;-68
2024/01/26 11:55:38;;;;;;;10.80;1.88;;;14.70;99.90;;;;;;5044919;28;20052;-69
2024/01/26 11:58:05;;;;;;;11.45;2.35;;;14.50;99.90;;;;;;5035257;28;20048;-69
2024/01/26 12:00:30;;;;;;;7.97;1.50;;;14.30;99.90;;;;;;5036910;28;20052;-70
2024/01/26 12:02:56;;;;;;;10.70;2.65;;;14.30;99.90;;;;;;5035080;28;20633;-70
2024/01/26 12:05:22;;;;;;;3.33;1.13;;;14.40;99.90;;;;;;5033763;28;20033;-69
2024/01/26 12:07:48;;;;;;;5.43;1.58;;;14.30;99.90;;;;;;5034733;28;20033;-69
2024/01/26 12:10:14;;;;;;;0.90;0.68;;;14.20;99.90;;;;;;5034886;28;20418;-69
2024/01/26 12:12:42;;;;;;;8.15;2.05;;;14.20;99.90;;;;;;5036882;28;20166;-69
2024/01/26 12:15:11;;;;;;;8.48;2.40;;;14.20;99.90;;;;;;5041940;28;20472;-68
2024/01/26 12:17:37;;;;;;;1.35;0.63;;;14.20;99.90;;;;;;5037317;28;20473;-69
2024/01/26 12:20:08;;;;;;;11.43;3.08;;;14.20;99.90;;;;;;5033073;28;20026;-70
2024/01/26 12:22:34;;;;;;;4.15;0.70;;;14.10;99.90;;;;;;5032233;28;20043;-71
2024/01/26 12:25:03;;;;;;;0.57;0.52;;;14.00;99.90;;;;;;5033917;28;20096;-70
2024/01/26 12:27:29;;;;;;;2.80;0.50;;;13.90;99.90;;;;;;5034246;28;20079;-70
2024/01/26 12:29:54;;;;;;;0.93;0.32;;;13.70;99.90;;;;;;5040645;28;20028;-71
2024/01/26 12:32:20;;;;;;;1.80;1.52;;;13.50;99.90;;;;;;5051837;28;20444;-71
2024/01/26 12:34:46;;;;;;;4.15;0.98;;;13.30;99.90;;;;;;5048287;28;20370;-69
2024/01/26 12:37:12;;;;;;;2.65;0.82;;;13.10;99.90;;;;;;5037712;28;20084;-69